Terminal Aerodrome Forecast
Issued by NWS Sterling, VA

Home | Current Version | Previous Version | Text Only | Print | Product List | Glossary On
Versions: 1 2 3 4 5 6 7 8 9 10 11 12 13 14 15 16 17 18 19 20 21 22 23 24 25
064
FTUS41 KLWX 181458 AAA
TAFDCA
TAF AMD
KDCA 181458Z 1815/1912 19010G19KT P6SM SCT120 OVC250
     FM190100 20015G27KT P6SM SCT040 OVC200
     FM190300 20016G30KT P6SM -SHRA SCT035 OVC140
     FM191000 25016G28KT 6SM -SHRA SCT030 OVC050=

USA.gov is the U.S. government's official web portal to all federal, state and local government web resources and services.